createdAt,value
2017-12-28T00:00:33.943Z,977.43
2017-12-28T00:01:14.477Z,977.45
2017-12-28T00:01:55.042Z,977.43
2017-12-28T00:02:35.604Z,977.4
2017-12-28T00:03:16.100Z,977.37
2017-12-28T00:03:56.622Z,977.38
2017-12-28T00:04:37.155Z,977.36
2017-12-28T00:05:17.681Z,977.39
2017-12-28T00:05:58.230Z,977.43
2017-12-28T00:06:38.782Z,977.4
2017-12-28T00:07:19.384Z,977.4
2017-12-28T00:07:59.906Z,977.36
2017-12-28T00:08:40.444Z,977.34
2017-12-28T00:09:21.018Z,977.46
2017-12-28T00:10:01.498Z,977.46
2017-12-28T00:10:42.108Z,977.41
2017-12-28T00:11:22.579Z,977.42
2017-12-28T00:12:03.126Z,977.45
2017-12-28T00:12:43.652Z,977.46
2017-12-28T00:13:24.202Z,977.42
2017-12-28T00:14:04.783Z,977.48
2017-12-28T00:14:45.334Z,977.47
2017-12-28T00:15:25.867Z,977.48
2017-12-28T00:16:06.428Z,977.53
2017-12-28T00:16:46.983Z,977.52
2017-12-28T00:17:27.509Z,977.48
2017-12-28T00:18:08.051Z,977.53
2017-12-28T00:18:48.580Z,977.51
2017-12-28T00:19:29.104Z,977.5
2017-12-28T00:20:09.662Z,977.46
2017-12-28T00:20:50.160Z,977.57
2017-12-28T00:21:30.714Z,977.57
2017-12-28T00:22:11.262Z,977.5
2017-12-28T00:22:51.855Z,977.54
2017-12-28T00:23:32.395Z,977.56
2017-12-28T00:24:12.928Z,977.54
2017-12-28T00:24:53.463Z,977.55
2017-12-28T00:25:34.016Z,977.56
2017-12-28T00:26:14.567Z,977.6
2017-12-28T00:26:55.291Z,977.58
2017-12-28T00:27:35.873Z,977.59
2017-12-28T00:28:16.399Z,977.55
2017-12-28T00:28:56.955Z,977.55
2017-12-28T00:29:37.508Z,977.57
2017-12-28T00:30:18.053Z,977.54
2017-12-28T00:30:58.563Z,977.55
2017-12-28T00:31:39.090Z,977.6
2017-12-28T00:32:19.634Z,977.62
2017-12-28T00:33:00.173Z,977.69
2017-12-28T00:33:40.699Z,977.61
2017-12-28T00:34:21.285Z,977.66
2017-12-28T00:35:01.814Z,977.69
2017-12-28T00:35:42.360Z,977.7
2017-12-28T00:36:22.904Z,977.72
2017-12-28T00:37:03.414Z,977.68
2017-12-28T00:37:43.971Z,977.72
2017-12-28T00:38:24.513Z,977.75
2017-12-28T00:39:05.029Z,977.72
2017-12-28T00:39:45.607Z,977.78
2017-12-28T00:40:26.150Z,977.78
2017-12-28T00:41:06.687Z,977.83
2017-12-28T00:41:47.225Z,977.83
2017-12-28T00:42:27.755Z,977.84
2017-12-28T00:43:08.299Z,977.86
2017-12-28T00:43:48.858Z,977.85
2017-12-28T00:44:29.402Z,977.83
2017-12-28T00:45:09.962Z,977.83
2017-12-28T00:45:50.498Z,977.78
2017-12-28T00:46:31.043Z,977.77
2017-12-28T00:47:11.571Z,977.79
2017-12-28T00:47:52.124Z,977.84
2017-12-28T00:48:32.673Z,977.84
2017-12-28T00:49:13.217Z,977.83
2017-12-28T00:49:53.773Z,977.84
2017-12-28T00:50:34.315Z,977.81
2017-12-28T00:51:14.853Z,977.83
2017-12-28T00:51:55.390Z,977.84
2017-12-28T00:52:35.953Z,977.83
2017-12-28T00:53:16.499Z,977.84
2017-12-28T00:53:57.063Z,977.88
2017-12-28T00:54:37.604Z,977.92
2017-12-28T00:55:18.172Z,977.89
2017-12-28T00:55:58.726Z,977.86
2017-12-28T00:56:39.271Z,977.9
2017-12-28T00:57:19.858Z,977.9
2017-12-28T00:58:00.412Z,977.92
2017-12-28T00:58:40.940Z,977.93
2017-12-28T00:59:21.474Z,977.93
2017-12-28T01:00:02.020Z,977.96
2017-12-28T01:00:42.586Z,977.9
2017-12-28T01:01:23.152Z,977.92
2017-12-28T01:02:03.696Z,977.95
2017-12-28T01:02:44.208Z,977.98
2017-12-28T01:03:24.765Z,978.03
2017-12-28T01:04:05.348Z,978
2017-12-28T01:04:45.880Z,978.06
2017-12-28T01:05:26.394Z,978.03
2017-12-28T01:06:06.954Z,977.99
2017-12-28T01:06:47.478Z,978.05
2017-12-28T01:07:28.044Z,978.13
2017-12-28T01:08:08.610Z,978.08
2017-12-28T01:08:49.147Z,978.09
2017-12-28T01:09:29.677Z,978.09
2017-12-28T01:10:10.194Z,978.06
2017-12-28T01:10:50.775Z,978.12
2017-12-28T01:11:31.327Z,978.08
2017-12-28T01:12:11.890Z,978.08
2017-12-28T01:12:52.442Z,978.13
2017-12-28T01:13:32.967Z,978.11
2017-12-28T01:14:13.489Z,978.12
2017-12-28T01:14:54.017Z,978.12
2017-12-28T01:15:34.577Z,978.08
2017-12-28T01:16:15.103Z,978.14
2017-12-28T01:16:55.648Z,978.19
2017-12-28T01:17:36.216Z,978.17
2017-12-28T01:18:16.761Z,978.13
2017-12-28T01:18:57.254Z,978.15
2017-12-28T01:19:37.787Z,978.18
2017-12-28T01:20:18.327Z,978.13
2017-12-28T01:20:58.897Z,978.17
2017-12-28T01:21:39.419Z,978.17
2017-12-28T01:22:19.974Z,978.14
2017-12-28T01:23:00.518Z,978.1
2017-12-28T01:23:41.031Z,978.13
2017-12-28T01:24:21.546Z,978.17
2017-12-28T01:25:02.093Z,978.18
2017-12-28T01:25:42.626Z,978.21
2017-12-28T01:26:23.166Z,978.2
2017-12-28T01:27:03.701Z,978.25
2017-12-28T01:27:44.265Z,978.28
2017-12-28T01:28:24.791Z,978.37
2017-12-28T01:29:05.329Z,978.34
2017-12-28T01:29:45.868Z,978.33
2017-12-28T01:30:26.395Z,978.4
2017-12-28T01:31:06.944Z,978.37
2017-12-28T01:31:47.467Z,978.34
2017-12-28T01:32:27.996Z,978.33
2017-12-28T01:33:08.568Z,978.33
2017-12-28T01:33:49.117Z,978.36
2017-12-28T01:34:29.658Z,978.36
2017-12-28T01:35:10.231Z,978.4
2017-12-28T01:35:50.767Z,978.38
2017-12-28T01:36:31.300Z,978.4
2017-12-28T01:37:11.841Z,978.38
2017-12-28T01:37:52.377Z,978.39
2017-12-28T01:38:32.886Z,978.4
2017-12-28T01:39:13.431Z,978.42
2017-12-28T01:39:53.982Z,978.46
2017-12-28T01:40:34.527Z,978.46
2017-12-28T01:41:15.037Z,978.47
2017-12-28T01:41:55.570Z,978.47
2017-12-28T01:42:36.074Z,978.47
2017-12-28T01:43:16.629Z,978.53
2017-12-28T01:43:57.231Z,978.52
2017-12-28T01:44:37.728Z,978.51
2017-12-28T01:45:18.273Z,978.54
2017-12-28T01:45:58.827Z,978.52
2017-12-28T01:46:39.383Z,978.53
2017-12-28T01:47:19.919Z,978.55
2017-12-28T01:48:00.463Z,978.54
2017-12-28T01:48:41.009Z,978.61
2017-12-28T01:49:21.588Z,978.59
2017-12-28T01:50:02.139Z,978.58
2017-12-28T01:50:42.697Z,978.62
2017-12-28T01:51:23.271Z,978.6
2017-12-28T01:52:03.810Z,978.61
2017-12-28T01:52:44.384Z,978.62
2017-12-28T01:53:24.910Z,978.65
2017-12-28T01:54:05.440Z,978.66
2017-12-28T01:54:45.996Z,978.66
2017-12-28T01:55:26.497Z,978.61
2017-12-28T01:56:07.050Z,978.67
2017-12-28T01:56:47.613Z,978.64
2017-12-28T01:57:28.177Z,978.71
2017-12-28T01:58:08.745Z,978.7
2017-12-28T01:58:49.270Z,978.71
2017-12-28T01:59:29.798Z,978.66
2017-12-28T02:00:10.327Z,978.76
2017-12-28T02:00:50.860Z,978.67
2017-12-28T02:01:31.403Z,978.71
2017-12-28T02:02:11.949Z,978.74
2017-12-28T02:02:52.477Z,978.69
2017-12-28T02:03:33.051Z,978.69
2017-12-28T02:04:13.582Z,978.65
2017-12-28T02:04:54.139Z,978.7
2017-12-28T02:05:34.643Z,978.66
2017-12-28T02:06:15.166Z,978.71
2017-12-28T02:06:55.731Z,978.65
2017-12-28T02:07:36.232Z,978.68
2017-12-28T02:08:16.777Z,978.73
2017-12-28T02:08:57.321Z,978.69
2017-12-28T02:09:37.864Z,978.72
2017-12-28T02:10:18.398Z,978.72
2017-12-28T02:10:58.912Z,978.74
2017-12-28T02:11:39.475Z,978.77
2017-12-28T02:12:20.046Z,978.78
2017-12-28T02:13:00.578Z,978.8
2017-12-28T02:13:41.086Z,978.8
2017-12-28T02:14:21.647Z,978.8
2017-12-28T02:15:02.196Z,978.79
2017-12-28T02:15:42.748Z,978.81
2017-12-28T02:16:23.282Z,978.81
2017-12-28T02:17:03.835Z,978.77
2017-12-28T02:17:44.395Z,978.8
2017-12-28T02:18:24.973Z,978.84
2017-12-28T02:19:05.472Z,978.87
2017-12-28T02:19:46.034Z,978.9
2017-12-28T02:20:26.574Z,978.93
2017-12-28T02:21:07.190Z,978.92
2017-12-28T02:21:47.703Z,978.99
2017-12-28T02:22:28.289Z,978.91
2017-12-28T02:23:08.804Z,978.96
2017-12-28T02:23:49.358Z,978.95
2017-12-28T02:24:29.902Z,978.96
2017-12-28T02:25:10.446Z,978.91
2017-12-28T02:25:50.993Z,978.91
2017-12-28T02:26:31.529Z,978.93
2017-12-28T02:27:12.076Z,978.93
2017-12-28T02:27:52.650Z,978.91
2017-12-28T02:28:33.169Z,978.88
2017-12-28T02:29:13.672Z,978.9
2017-12-28T02:29:54.233Z,978.86
2017-12-28T02:30:34.806Z,978.92
2017-12-28T02:31:15.319Z,978.91
2017-12-28T02:31:55.872Z,978.92
2017-12-28T02:32:36.403Z,978.93
2017-12-28T02:33:16.954Z,978.92
2017-12-28T02:33:57.473Z,978.91
2017-12-28T02:34:38.005Z,978.9
2017-12-28T02:35:18.539Z,979.01
2017-12-28T02:35:59.058Z,978.99
2017-12-28T02:36:39.589Z,978.97
2017-12-28T02:37:20.141Z,978.99
2017-12-28T02:38:00.702Z,979.04
2017-12-28T02:38:41.221Z,979.01
2017-12-28T02:39:21.738Z,978.99
2017-12-28T02:40:02.273Z,979.05
2017-12-28T02:40:42.814Z,979.05
2017-12-28T02:41:23.360Z,979.08
2017-12-28T02:42:03.911Z,979.06
2017-12-28T02:42:44.439Z,979.07
2017-12-28T02:43:25.021Z,979.08
2017-12-28T02:44:05.564Z,979.07
2017-12-28T02:44:46.117Z,979.09
2017-12-28T02:45:26.659Z,979.12
2017-12-28T02:46:07.215Z,979.1
2017-12-28T02:46:47.757Z,979.14
2017-12-28T02:47:28.268Z,979.15
2017-12-28T02:48:08.800Z,979.21
2017-12-28T02:48:49.381Z,979.19
2017-12-28T02:49:29.927Z,979.18
2017-12-28T02:50:10.424Z,979.2
2017-12-28T02:50:50.968Z,979.18
2017-12-28T02:51:31.529Z,979.21
2017-12-28T02:52:12.074Z,979.2
2017-12-28T02:52:52.622Z,979.18
2017-12-28T02:53:33.174Z,979.25
2017-12-28T02:54:13.688Z,979.24
2017-12-28T02:54:54.233Z,979.28
2017-12-28T02:55:34.764Z,979.29
2017-12-28T02:56:15.317Z,979.26
2017-12-28T02:56:55.874Z,979.25
2017-12-28T02:57:36.357Z,979.31
2017-12-28T02:58:16.916Z,979.32
2017-12-28T02:58:57.451Z,979.35
2017-12-28T02:59:37.995Z,979.28
2017-12-28T03:00:18.538Z,979.39
2017-12-28T03:00:59.068Z,979.35
2017-12-28T03:01:39.644Z,979.36
2017-12-28T03:02:20.124Z,979.38
2017-12-28T03:03:00.652Z,979.39
2017-12-28T03:03:41.234Z,979.4
2017-12-28T03:04:21.778Z,979.38
2017-12-28T03:05:02.330Z,979.41
2017-12-28T03:05:42.840Z,979.4
2017-12-28T03:06:23.409Z,979.4
2017-12-28T03:07:03.885Z,979.36
2017-12-28T03:07:44.437Z,979.4
2017-12-28T03:08:24.992Z,979.4
2017-12-28T03:09:05.531Z,979.42
2017-12-28T03:09:46.054Z,979.49
2017-12-28T03:10:26.611Z,979.51
2017-12-28T03:11:07.150Z,979.45
2017-12-28T03:11:47.673Z,979.54
2017-12-28T03:12:28.253Z,979.54
2017-12-28T03:13:08.794Z,979.53
2017-12-28T03:13:49.312Z,979.61
2017-12-28T03:14:29.873Z,979.54
2017-12-28T03:15:10.399Z,979.55
2017-12-28T03:15:50.897Z,979.58
2017-12-28T03:16:31.441Z,979.56
2017-12-28T03:17:12.001Z,979.59
2017-12-28T03:17:52.515Z,979.59
2017-12-28T03:18:33.057Z,979.63
2017-12-28T03:19:13.591Z,979.6
2017-12-28T03:19:54.127Z,979.61
2017-12-28T03:20:34.698Z,979.64
2017-12-28T03:21:15.240Z,979.63
2017-12-28T03:21:55.771Z,979.67
2017-12-28T03:22:36.356Z,979.73
2017-12-28T03:23:16.859Z,979.74
2017-12-28T03:23:57.400Z,979.67
2017-12-28T03:24:37.931Z,979.7
2017-12-28T03:25:18.466Z,979.72
2017-12-28T03:25:59.022Z,979.7
2017-12-28T03:26:39.586Z,979.73
2017-12-28T03:27:20.104Z,979.72
2017-12-28T03:28:00.646Z,979.79
2017-12-28T03:28:41.200Z,979.77
2017-12-28T03:29:21.735Z,979.83
2017-12-28T03:30:02.257Z,979.85
2017-12-28T03:30:42.810Z,979.86
2017-12-28T03:31:23.322Z,979.89
2017-12-28T03:32:03.886Z,979.9
2017-12-28T03:32:44.397Z,979.91
2017-12-28T03:33:24.948Z,979.88
2017-12-28T03:34:05.464Z,979.88
2017-12-28T03:34:46.044Z,979.9
2017-12-28T03:35:26.593Z,979.9
2017-12-28T03:36:07.103Z,979.9
2017-12-28T03:36:47.620Z,979.93
2017-12-28T03:37:28.181Z,979.98
2017-12-28T03:38:08.699Z,979.98
2017-12-28T03:38:49.261Z,979.95
2017-12-28T03:39:29.786Z,979.95
2017-12-28T03:40:10.316Z,979.91
2017-12-28T03:40:50.893Z,979.91
2017-12-28T03:41:31.394Z,979.9
2017-12-28T03:42:11.990Z,979.94
2017-12-28T03:42:52.462Z,979.96
2017-12-28T03:43:32.984Z,980.02
2017-12-28T03:44:13.529Z,980.06
2017-12-28T03:44:54.095Z,980.13
2017-12-28T03:45:34.626Z,980.14
2017-12-28T03:46:15.152Z,980.13
2017-12-28T03:46:55.684Z,980.15
2017-12-28T03:47:36.246Z,980.14
2017-12-28T03:48:16.792Z,980.27
2017-12-28T03:48:57.335Z,980.25
2017-12-28T03:49:37.863Z,980.32
2017-12-28T03:50:18.442Z,980.32
2017-12-28T03:50:58.945Z,980.36
2017-12-28T03:51:39.537Z,980.39
2017-12-28T03:52:20.057Z,980.42
2017-12-28T03:53:00.582Z,980.45
2017-12-28T03:53:41.119Z,980.46
2017-12-28T03:54:21.706Z,980.46
2017-12-28T03:55:02.221Z,980.44
2017-12-28T03:55:42.749Z,980.44
2017-12-28T03:56:23.329Z,980.42
2017-12-28T03:57:03.882Z,980.43
2017-12-28T03:57:44.441Z,980.45
2017-12-28T03:58:25.000Z,980.46
2017-12-28T03:59:05.511Z,980.51
2017-12-28T03:59:46.009Z,980.48
2017-12-28T04:00:26.538Z,980.47
2017-12-28T04:01:07.083Z,980.53
2017-12-28T04:01:47.655Z,980.45
2017-12-28T04:02:28.178Z,980.52
2017-12-28T04:03:08.714Z,980.52
2017-12-28T04:03:49.266Z,980.53
2017-12-28T04:04:29.841Z,980.51
2017-12-28T04:05:10.371Z,980.54
2017-12-28T04:05:50.917Z,980.57
2017-12-28T04:06:31.474Z,980.62
2017-12-28T04:07:12.127Z,980.62
2017-12-28T04:07:52.624Z,980.63
2017-12-28T04:08:33.165Z,980.72
2017-12-28T04:09:13.693Z,980.71
2017-12-28T04:09:54.257Z,980.74
2017-12-28T04:10:34.792Z,980.69
2017-12-28T04:11:15.368Z,980.77
2017-12-28T04:11:55.911Z,980.78
2017-12-28T04:12:36.507Z,980.77
2017-12-28T04:13:16.987Z,980.78
2017-12-28T04:13:57.516Z,980.74
2017-12-28T04:14:38.071Z,980.81
2017-12-28T04:15:18.572Z,980.79
2017-12-28T04:15:59.096Z,980.77
2017-12-28T04:16:39.638Z,980.8
2017-12-28T04:17:20.172Z,980.88
2017-12-28T04:18:00.709Z,980.88
2017-12-28T04:18:41.247Z,980.87
2017-12-28T04:19:21.790Z,980.9
2017-12-28T04:20:02.313Z,980.91
2017-12-28T04:20:42.864Z,980.92
2017-12-28T04:21:23.423Z,980.9
2017-12-28T04:22:03.977Z,980.91
2017-12-28T04:22:44.519Z,980.97
2017-12-28T04:23:25.048Z,980.99
2017-12-28T04:24:05.599Z,980.98
2017-12-28T04:24:46.146Z,981
2017-12-28T04:25:26.712Z,981.06
2017-12-28T04:26:07.194Z,981.03
2017-12-28T04:26:47.796Z,981.02
2017-12-28T04:27:28.331Z,981.02
2017-12-28T04:28:08.833Z,981.01
2017-12-28T04:28:49.376Z,981
2017-12-28T04:29:29.923Z,981.07
2017-12-28T04:30:10.530Z,981.04
2017-12-28T04:30:51.049Z,981.07
2017-12-28T04:31:31.591Z,981.03
2017-12-28T04:32:12.116Z,981.11
2017-12-28T04:32:52.669Z,981.11
2017-12-28T04:33:33.237Z,981.15
2017-12-28T04:34:13.740Z,981.09
2017-12-28T04:34:54.261Z,981.15
2017-12-28T04:35:34.796Z,981.18
2017-12-28T04:36:15.349Z,981.15
2017-12-28T04:36:55.922Z,981.18
2017-12-28T04:37:36.445Z,981.18
2017-12-28T04:38:16.918Z,981.22
2017-12-28T04:38:57.477Z,981.29
2017-12-28T04:39:37.983Z,981.26
2017-12-28T04:40:18.567Z,981.28
2017-12-28T04:40:59.089Z,981.29
2017-12-28T04:41:39.656Z,981.33
2017-12-28T04:42:20.175Z,981.31
2017-12-28T04:43:00.722Z,981.38
2017-12-28T04:43:41.276Z,981.35
2017-12-28T04:44:21.827Z,981.34
2017-12-28T04:45:02.351Z,981.39
2017-12-28T04:45:42.904Z,981.5
2017-12-28T04:46:23.455Z,981.43
2017-12-28T04:47:04.010Z,981.46
2017-12-28T04:47:44.554Z,981.41
2017-12-28T04:48:25.090Z,981.39
2017-12-28T04:49:05.629Z,981.48
2017-12-28T04:49:46.144Z,981.4
2017-12-28T04:50:26.691Z,981.46
2017-12-28T04:51:07.209Z,981.49
2017-12-28T04:51:47.747Z,981.47
2017-12-28T04:52:28.299Z,981.54
2017-12-28T04:53:08.798Z,981.51
2017-12-28T04:53:49.328Z,981.55
2017-12-28T04:54:29.882Z,981.56
2017-12-28T04:55:10.434Z,981.6
2017-12-28T04:55:50.998Z,981.63
2017-12-28T04:56:31.517Z,981.61
2017-12-28T04:57:12.031Z,981.65
2017-12-28T04:57:52.591Z,981.63
2017-12-28T04:58:33.122Z,981.64
2017-12-28T04:59:13.698Z,981.68
2017-12-28T04:59:54.208Z,981.74
2017-12-28T05:00:34.767Z,981.74
2017-12-28T05:01:15.318Z,981.74
2017-12-28T05:01:55.795Z,981.78
2017-12-28T05:02:36.353Z,981.75
2017-12-28T05:03:16.913Z,981.82
2017-12-28T05:03:57.472Z,981.78
2017-12-28T05:04:38.010Z,981.77
2017-12-28T05:05:18.533Z,981.8
2017-12-28T05:05:59.059Z,981.83
2017-12-28T05:06:39.597Z,981.88
2017-12-28T05:07:20.127Z,981.87
2017-12-28T05:08:00.677Z,981.94
2017-12-28T05:08:41.209Z,981.87
2017-12-28T05:09:21.752Z,981.96
2017-12-28T05:10:02.306Z,981.93
2017-12-28T05:10:42.831Z,981.97
2017-12-28T05:11:23.352Z,981.94
2017-12-28T05:12:03.891Z,981.97
2017-12-28T05:12:44.418Z,981.98
2017-12-28T05:13:24.938Z,982.03
2017-12-28T05:14:05.472Z,982.01
2017-12-28T05:14:46.027Z,982.06
2017-12-28T05:15:26.575Z,982.07
2017-12-28T05:16:07.106Z,982.12
2017-12-28T05:16:47.641Z,982.11
2017-12-28T05:17:28.188Z,982.16
2017-12-28T05:18:08.765Z,982.21
2017-12-28T05:18:49.283Z,982.19
2017-12-28T05:19:29.827Z,982.21
2017-12-28T05:20:10.402Z,982.25
2017-12-28T05:20:50.879Z,982.23
2017-12-28T05:21:31.451Z,982.31
2017-12-28T05:22:12.002Z,982.29
2017-12-28T05:22:52.535Z,982.28
2017-12-28T05:23:33.079Z,982.32
2017-12-28T05:24:13.634Z,982.31
2017-12-28T05:24:54.174Z,982.31
2017-12-28T05:25:34.702Z,982.33
2017-12-28T05:26:15.267Z,982.36
2017-12-28T05:26:55.842Z,982.38
2017-12-28T05:27:36.396Z,982.35
2017-12-28T05:28:16.970Z,982.36
2017-12-28T05:28:57.458Z,982.38
2017-12-28T05:29:38.053Z,982.39
2017-12-28T05:30:18.609Z,982.41
2017-12-28T05:30:59.069Z,982.43
2017-12-28T05:31:39.653Z,982.46
2017-12-28T05:32:20.162Z,982.48
2017-12-28T05:33:00.731Z,982.46
2017-12-28T05:33:41.269Z,982.51
2017-12-28T05:34:21.797Z,982.52
2017-12-28T05:35:02.326Z,982.56
2017-12-28T05:35:42.870Z,982.49
2017-12-28T05:36:23.375Z,982.54
2017-12-28T05:37:03.923Z,982.58
2017-12-28T05:37:44.487Z,982.55
2017-12-28T05:38:25.050Z,982.57
2017-12-28T05:39:05.541Z,982.57
2017-12-28T05:39:46.085Z,982.63
2017-12-28T05:40:26.650Z,982.62
2017-12-28T05:41:07.228Z,982.68
2017-12-28T05:41:47.785Z,982.72
2017-12-28T05:42:28.319Z,982.67
2017-12-28T05:43:08.854Z,982.77
2017-12-28T05:43:49.390Z,982.7
2017-12-28T05:44:29.910Z,982.76
2017-12-28T05:45:10.486Z,982.75
2017-12-28T05:45:51.014Z,982.78
2017-12-28T05:46:31.564Z,982.76
2017-12-28T05:47:12.107Z,982.78
2017-12-28T05:47:52.632Z,982.77
2017-12-28T05:48:33.214Z,982.79
2017-12-28T05:49:13.709Z,982.8
2017-12-28T05:49:54.261Z,982.77
2017-12-28T05:50:34.811Z,982.84
2017-12-28T05:51:15.422Z,982.79
2017-12-28T05:51:55.906Z,982.8
2017-12-28T05:52:36.463Z,982.85
2017-12-28T05:53:16.969Z,982.83
2017-12-28T05:53:57.522Z,982.9
2017-12-28T05:54:38.048Z,982.87
2017-12-28T05:55:18.603Z,982.9
2017-12-28T05:55:59.121Z,982.91
2017-12-28T05:56:39.650Z,982.96
2017-12-28T05:57:20.125Z,983.01
2017-12-28T05:58:00.681Z,982.97
2017-12-28T05:58:41.210Z,982.97
2017-12-28T05:59:21.802Z,983
2017-12-28T06:00:02.295Z,983.01
2017-12-28T06:00:42.835Z,983.03
2017-12-28T06:01:23.372Z,983.09
2017-12-28T06:02:03.906Z,983.08
2017-12-28T06:02:44.466Z,983.11
2017-12-28T06:03:24.983Z,983.11
2017-12-28T06:04:05.536Z,983.12
2017-12-28T06:04:46.043Z,983.15
2017-12-28T06:05:26.597Z,983.12
2017-12-28T06:06:07.091Z,983.15
2017-12-28T06:06:47.637Z,983.24
2017-12-28T06:07:28.185Z,983.18
2017-12-28T06:08:08.755Z,983.18
2017-12-28T06:08:49.285Z,983.23
2017-12-28T06:09:29.866Z,983.23
2017-12-28T06:10:10.346Z,983.24
2017-12-28T06:10:50.907Z,983.25
2017-12-28T06:11:31.418Z,983.31
2017-12-28T06:12:11.970Z,983.29
2017-12-28T06:12:52.508Z,983.31
2017-12-28T06:13:33.051Z,983.34
2017-12-28T06:14:13.605Z,983.41
2017-12-28T06:14:54.165Z,983.36
2017-12-28T06:15:34.725Z,983.38
2017-12-28T06:16:15.281Z,983.43
2017-12-28T06:16:55.766Z,983.39
2017-12-28T06:17:36.344Z,983.41
2017-12-28T06:18:16.839Z,983.44
2017-12-28T06:18:57.341Z,983.45
2017-12-28T06:19:37.894Z,983.43
2017-12-28T06:20:18.417Z,983.48
2017-12-28T06:20:58.913Z,983.45
2017-12-28T06:21:39.468Z,983.5
2017-12-28T06:22:20.006Z,983.58
2017-12-28T06:23:00.540Z,983.53
2017-12-28T06:23:41.089Z,983.6
2017-12-28T06:24:21.587Z,983.57
2017-12-28T06:25:02.137Z,983.63
2017-12-28T06:25:42.708Z,983.63
2017-12-28T06:26:23.196Z,983.63
2017-12-28T06:27:03.751Z,983.64
2017-12-28T06:27:44.277Z,983.64
2017-12-28T06:28:24.820Z,983.64
2017-12-28T06:29:05.370Z,983.69
2017-12-28T06:29:45.953Z,983.7
2017-12-28T06:30:26.467Z,983.73
2017-12-28T06:31:07.024Z,983.8
2017-12-28T06:31:47.554Z,983.75
2017-12-28T06:32:28.051Z,983.72
2017-12-28T06:33:08.571Z,983.71
2017-12-28T06:33:49.153Z,983.75
2017-12-28T06:34:29.777Z,983.79
2017-12-28T06:35:10.301Z,983.79
2017-12-28T06:35:50.774Z,983.8
2017-12-28T06:36:31.292Z,983.81
2017-12-28T06:37:11.873Z,983.82
2017-12-28T06:37:52.364Z,983.81
2017-12-28T06:38:32.949Z,983.83
2017-12-28T06:39:13.474Z,983.88
2017-12-28T06:39:54.030Z,983.87
2017-12-28T06:40:34.570Z,983.87
2017-12-28T06:41:15.142Z,983.87
2017-12-28T06:41:55.651Z,983.91
2017-12-28T06:42:36.195Z,983.92
2017-12-28T06:43:16.742Z,983.89
2017-12-28T06:43:57.293Z,983.89
2017-12-28T06:44:37.832Z,983.92
2017-12-28T06:45:18.418Z,983.98
2017-12-28T06:45:58.959Z,983.99
2017-12-28T06:46:39.496Z,983.99
2017-12-28T06:47:20.049Z,984
2017-12-28T06:48:01.758Z,984.01
2017-12-28T06:48:42.312Z,984.04
2017-12-28T06:49:22.882Z,984.01
2017-12-28T06:50:03.416Z,984.01
2017-12-28T06:50:43.964Z,984.04
2017-12-28T06:51:24.526Z,984.06
2017-12-28T06:52:05.038Z,984.07
2017-12-28T06:52:45.593Z,984.03
2017-12-28T06:53:26.184Z,984.06
2017-12-28T06:54:06.750Z,984.05
2017-12-28T06:54:47.357Z,984.07
2017-12-28T06:55:27.897Z,984.06
2017-12-28T06:56:08.467Z,984.07
2017-12-28T06:56:49.015Z,984.04
2017-12-28T06:57:29.585Z,984.09
2017-12-28T06:58:10.119Z,984.13
2017-12-28T06:58:50.713Z,984.08
2017-12-28T06:59:31.207Z,984.06
2017-12-28T07:00:11.730Z,984.12
2017-12-28T07:00:52.284Z,984.14
2017-12-28T07:01:32.774Z,984.13
2017-12-28T07:02:13.340Z,984.2
2017-12-28T07:02:53.864Z,984.22
2017-12-28T07:03:34.391Z,984.2
2017-12-28T07:04:14.937Z,984.22
2017-12-28T07:04:55.487Z,984.29
2017-12-28T07:05:35.999Z,984.26
2017-12-28T07:06:16.522Z,984.31
2017-12-28T07:06:57.083Z,984.36
2017-12-28T07:07:37.602Z,984.38
2017-12-28T07:08:18.146Z,984.36
2017-12-28T07:08:58.659Z,984.38
2017-12-28T07:09:39.225Z,984.37
2017-12-28T07:10:19.773Z,984.41
2017-12-28T07:11:00.295Z,984.36
2017-12-28T07:11:40.851Z,984.44
2017-12-28T07:12:21.374Z,984.41
2017-12-28T07:13:01.921Z,984.43
2017-12-28T07:13:42.424Z,984.48
2017-12-28T07:14:22.987Z,984.5
2017-12-28T07:15:03.530Z,984.49
2017-12-28T07:15:44.080Z,984.58
2017-12-28T07:16:24.607Z,984.55
2017-12-28T07:17:05.200Z,984.6
2017-12-28T07:17:45.695Z,984.62
2017-12-28T07:18:26.261Z,984.65
2017-12-28T07:19:06.782Z,984.61
2017-12-28T07:19:47.317Z,984.6
2017-12-28T07:20:27.860Z,984.66
2017-12-28T07:21:08.331Z,984.65
2017-12-28T07:21:48.894Z,984.69
2017-12-28T07:22:29.452Z,984.71
2017-12-28T07:23:10.005Z,984.77
2017-12-28T07:23:50.545Z,984.81
2017-12-28T07:24:31.141Z,984.73
2017-12-28T07:25:11.669Z,984.78
2017-12-28T07:25:52.198Z,984.73
2017-12-28T07:26:32.719Z,984.77
2017-12-28T07:27:13.238Z,984.77
2017-12-28T07:27:53.795Z,984.81
2017-12-28T07:28:34.338Z,984.77
2017-12-28T07:29:14.903Z,984.83
2017-12-28T07:29:55.449Z,984.77
2017-12-28T07:30:36.005Z,984.79
2017-12-28T07:31:16.559Z,984.81
2017-12-28T07:31:57.121Z,984.85
2017-12-28T07:32:37.680Z,984.92
2017-12-28T07:33:18.223Z,984.9
2017-12-28T07:33:58.751Z,984.87
2017-12-28T07:34:39.311Z,984.86
2017-12-28T07:35:19.873Z,984.94
2017-12-28T07:36:02.292Z,984.93
2017-12-28T07:36:42.950Z,984.98
2017-12-28T07:37:23.444Z,985.03
2017-12-28T07:38:03.950Z,985.03
2017-12-28T07:38:44.518Z,985.01
2017-12-28T07:39:25.076Z,985.05
2017-12-28T07:40:05.608Z,985.04
2017-12-28T07:40:46.159Z,985.07
2017-12-28T07:41:26.716Z,985.08
2017-12-28T07:42:07.261Z,985.07
2017-12-28T07:42:47.822Z,985.1
2017-12-28T07:43:28.397Z,985.13
2017-12-28T07:44:08.914Z,985.15
2017-12-28T07:44:49.512Z,985.14
2017-12-28T07:45:30.024Z,985.1
2017-12-28T07:46:10.577Z,985.12
2017-12-28T07:46:51.137Z,985.2
2017-12-28T07:47:31.663Z,985.21
2017-12-28T07:48:12.224Z,985.18
2017-12-28T07:48:52.764Z,985.22
2017-12-28T07:49:33.313Z,985.2
2017-12-28T07:50:13.811Z,985.22
2017-12-28T07:50:54.371Z,985.24
2017-12-28T07:51:34.923Z,985.23
2017-12-28T07:52:15.432Z,985.25
2017-12-28T07:52:56.440Z,985.34
2017-12-28T07:53:36.536Z,985.27
2017-12-28T07:54:17.100Z,985.34
2017-12-28T07:54:57.657Z,985.35
2017-12-28T07:55:38.164Z,985.35
2017-12-28T07:56:18.685Z,985.37
2017-12-28T07:56:59.208Z,985.34
2017-12-28T07:57:39.852Z,985.41
2017-12-28T07:58:20.416Z,985.39
2017-12-28T07:59:00.958Z,985.37
2017-12-28T07:59:41.493Z,985.39
2017-12-28T08:00:22.044Z,985.41
2017-12-28T08:01:02.614Z,985.5
2017-12-28T08:01:43.123Z,985.45
2017-12-28T08:02:23.649Z,985.46
2017-12-28T08:03:04.182Z,985.45
2017-12-28T08:03:44.717Z,985.51
2017-12-28T08:04:25.260Z,985.48
2017-12-28T08:05:05.751Z,985.49
2017-12-28T08:05:46.296Z,985.48
2017-12-28T08:06:26.814Z,985.47
2017-12-28T08:07:07.356Z,985.49
2017-12-28T08:07:47.860Z,985.56
2017-12-28T08:08:28.380Z,985.57
2017-12-28T08:09:08.987Z,985.49
2017-12-28T08:09:49.535Z,985.6
2017-12-28T08:10:30.085Z,985.58
2017-12-28T08:11:10.622Z,985.67
2017-12-28T08:11:51.179Z,985.59
2017-12-28T08:12:31.716Z,985.68
2017-12-28T08:13:12.219Z,985.61
2017-12-28T08:13:52.816Z,985.65
2017-12-28T08:14:33.396Z,985.71
2017-12-28T08:15:13.946Z,985.73
2017-12-28T08:15:54.498Z,985.74
2017-12-28T08:16:34.992Z,985.72
2017-12-28T08:17:15.516Z,985.74
2017-12-28T08:17:56.043Z,985.7
2017-12-28T08:18:36.551Z,985.7
2017-12-28T08:19:17.109Z,985.77
2017-12-28T08:19:57.669Z,985.75
2017-12-28T08:20:38.157Z,985.69
2017-12-28T08:21:18.733Z,985.75
2017-12-28T08:21:59.228Z,985.75
2017-12-28T08:22:39.771Z,985.82
2017-12-28T08:23:20.316Z,985.83
2017-12-28T08:24:00.946Z,985.82
2017-12-28T08:24:41.470Z,985.89
2017-12-28T08:25:22.029Z,985.85
2017-12-28T08:26:02.527Z,985.85
2017-12-28T08:26:43.077Z,985.86
2017-12-28T08:27:23.644Z,985.88
2017-12-28T08:28:04.193Z,985.88